createdAt,value
2017-03-31T13:47:58.746Z,4
2017-03-31T13:48:59.959Z,4
2017-03-31T13:50:01.204Z,4
2017-03-31T13:51:01.949Z,4
2017-03-31T13:52:03.020Z,4
2017-03-31T14:50:51.104Z,952
2017-03-31T14:51:52.023Z,196
2017-03-31T14:52:52.689Z,564
2017-03-31T14:53:53.325Z,2024
2017-03-31T14:54:53.962Z,2908
2017-03-31T14:55:55.090Z,2836
2017-03-31T14:56:55.862Z,2780
2017-03-31T14:57:56.684Z,2692
2017-03-31T14:58:57.324Z,2764
2017-03-31T14:59:57.993Z,2512
2017-03-31T15:00:58.680Z,2504
2017-03-31T15:01:59.321Z,2740
2017-03-31T15:03:00.022Z,2796
2017-03-31T15:04:00.665Z,2760
2017-03-31T15:05:01.353Z,2860
2017-03-31T15:06:02.007Z,2908
2017-03-31T15:07:02.657Z,2708
2017-03-31T15:08:03.384Z,2712
2017-03-31T15:09:04.040Z,2624
2017-03-31T15:10:04.699Z,2644
2017-03-31T15:11:05.345Z,2688
2017-03-31T15:12:06.003Z,2684
2017-03-31T15:13:06.654Z,2764
2017-03-31T15:14:07.460Z,2760
2017-03-31T15:15:08.117Z,2756
2017-03-31T15:16:09.980Z,2740
2017-03-31T15:17:10.848Z,2888
2017-03-31T15:18:11.523Z,3036
2017-03-31T15:19:12.165Z,3204
2017-03-31T15:21:54.332Z,3064
2017-03-31T15:22:55.272Z,3008
2017-03-31T15:23:55.917Z,3020
2017-03-31T15:24:56.566Z,2928
2017-03-31T15:25:57.466Z,2788
2017-03-31T15:26:58.130Z,2764
2017-03-31T15:27:58.778Z,2796
2017-03-31T15:28:59.430Z,2776
2017-03-31T15:30:00.105Z,2768
2017-03-31T15:31:03.313Z,2752
2017-03-31T15:34:21.952Z,2556
2017-03-31T15:35:22.604Z,2484
2017-03-31T15:36:23.500Z,2368
2017-03-31T15:37:24.150Z,2280
2017-03-31T15:38:24.806Z,2272
2017-03-31T15:39:25.463Z,2232
2017-03-31T15:40:26.479Z,2248
2017-03-31T15:41:27.156Z,2184
2017-03-31T15:42:27.804Z,2128
2017-03-31T15:43:28.466Z,2100
2017-03-31T15:44:29.111Z,2096
2017-03-31T15:45:29.784Z,2120
2017-03-31T15:46:30.507Z,2152
2017-03-31T15:47:31.166Z,2208
2017-03-31T15:48:32.120Z,2236
2017-03-31T15:49:32.770Z,2236
2017-03-31T15:50:33.431Z,2372
2017-03-31T15:51:34.081Z,2276
2017-03-31T15:52:34.744Z,2252
2017-03-31T15:53:35.326Z,2208
2017-03-31T15:54:36.640Z,2208
2017-03-31T15:55:37.310Z,2160
2017-03-31T15:56:37.979Z,2152
2017-03-31T15:57:38.640Z,2120
2017-03-31T15:58:39.312Z,2084
2017-03-31T15:59:39.957Z,2080
2017-03-31T16:00:40.604Z,2024
2017-03-31T16:01:41.254Z,2028
2017-03-31T16:02:41.905Z,2020
2017-03-31T16:03:42.961Z,1988
2017-03-31T16:04:43.645Z,1952
2017-03-31T16:05:44.300Z,1920
2017-03-31T16:06:44.967Z,1908
2017-03-31T16:07:45.624Z,1916
2017-03-31T16:08:46.335Z,1904
2017-03-31T16:09:46.989Z,1860
2017-03-31T16:10:47.797Z,1844
2017-03-31T16:11:48.441Z,1800
2017-03-31T16:12:49.111Z,1816
2017-03-31T16:13:49.756Z,1812
2017-03-31T16:14:50.446Z,1840
2017-03-31T16:15:51.194Z,1848
2017-03-31T16:16:52.088Z,1852
2017-03-31T16:17:52.743Z,1840
2017-03-31T16:18:53.428Z,1812
2017-03-31T16:19:54.131Z,1800
2017-03-31T16:20:54.780Z,1808
2017-03-31T16:21:55.426Z,1820
2017-03-31T16:22:56.075Z,1824
2017-03-31T16:23:56.748Z,1784
2017-03-31T16:24:57.394Z,1724
2017-03-31T16:25:58.048Z,1680
2017-03-31T16:26:58.708Z,1660
2017-03-31T16:29:15.251Z,1664
2017-03-31T16:30:15.930Z,1668
2017-03-31T16:31:16.582Z,1640
2017-03-31T16:32:17.481Z,1588
2017-03-31T16:33:18.137Z,1544
2017-03-31T16:34:18.779Z,1520
2017-03-31T16:35:19.426Z,1496
2017-03-31T16:36:20.131Z,1468
2017-03-31T16:37:20.790Z,1444
2017-03-31T16:38:21.469Z,1404
2017-03-31T16:39:22.137Z,1384
2017-03-31T16:40:22.815Z,1356
2017-03-31T16:41:23.876Z,1348
2017-03-31T16:42:24.787Z,1344
2017-03-31T16:43:25.432Z,1352
2017-03-31T16:44:26.497Z,1352
2017-03-31T16:45:27.150Z,1332
2017-03-31T16:46:27.800Z,1320
2017-03-31T16:47:28.927Z,1284
2017-03-31T16:48:29.622Z,1256
2017-03-31T16:49:30.291Z,1236
2017-03-31T16:50:31.047Z,1220
2017-03-31T16:51:32.092Z,1212
2017-03-31T16:52:32.742Z,1204
2017-03-31T16:53:33.415Z,1180
2017-03-31T16:54:34.064Z,1172
2017-03-31T16:55:35.890Z,1164
2017-03-31T16:56:36.536Z,1168
2017-03-31T16:57:37.441Z,1168
2017-03-31T16:58:38.085Z,1156
2017-03-31T16:59:38.748Z,1136
2017-03-31T17:00:39.403Z,1120
2017-03-31T17:01:40.058Z,1096
2017-03-31T17:02:40.710Z,1060
2017-03-31T17:03:41.369Z,1032
2017-03-31T17:04:42.010Z,1012
2017-03-31T17:05:42.679Z,996
2017-03-31T17:06:43.328Z,972
2017-03-31T17:07:44.005Z,952
2017-03-31T17:08:44.671Z,924
2017-03-31T17:09:45.346Z,888
2017-03-31T17:10:46.032Z,844
2017-03-31T17:11:46.671Z,788
2017-03-31T17:12:47.569Z,740
2017-03-31T17:13:48.209Z,704
2017-03-31T17:14:48.860Z,676
2017-03-31T17:15:49.506Z,660
2017-03-31T17:16:50.148Z,652
2017-03-31T17:17:50.795Z,644
2017-03-31T17:18:51.480Z,628
2017-03-31T17:19:52.130Z,612
2017-03-31T17:20:53.654Z,596
2017-03-31T17:21:54.308Z,580
2017-03-31T17:22:55.236Z,556
2017-03-31T17:23:55.951Z,528
2017-03-31T17:24:56.624Z,508
2017-03-31T17:25:57.274Z,484
2017-03-31T17:26:58.019Z,456
2017-03-31T17:27:58.684Z,436
2017-03-31T17:28:59.349Z,420
2017-03-31T17:30:00.008Z,400
2017-03-31T17:31:00.658Z,392
2017-03-31T17:32:01.367Z,376
2017-03-31T17:33:02.018Z,360
2017-03-31T17:34:02.714Z,344
2017-03-31T17:35:03.473Z,324
2017-03-31T17:36:04.165Z,304
2017-03-31T17:37:04.864Z,284
2017-03-31T17:38:05.862Z,268
2017-03-31T17:39:10.902Z,244
2017-03-31T17:40:17.035Z,228
2017-03-31T17:41:23.371Z,224
2017-03-31T17:42:19.813Z,216
2017-03-31T17:44:38.948Z,200
2017-03-31T17:45:39.563Z,184
2017-03-31T17:46:40.208Z,172
2017-03-31T17:47:46.593Z,160
2017-03-31T17:48:46.358Z,148
2017-03-31T17:49:52.680Z,140
2017-03-31T17:50:54.340Z,132
2017-03-31T17:52:00.696Z,124
2017-03-31T17:52:57.223Z,116
2017-03-31T17:55:36.068Z,88
2017-03-31T17:56:37.993Z,76
2017-03-31T17:57:39.292Z,68
2017-03-31T18:00:00.491Z,48
2017-03-31T18:01:02.273Z,36
2017-03-31T18:02:09.053Z,40
2017-03-31T18:03:08.460Z,36
2017-03-31T18:04:12.788Z,36
2017-03-31T18:06:06.642Z,28
2017-03-31T18:07:11.630Z,28
2017-03-31T18:08:15.017Z,20
2017-03-31T18:10:35.608Z,20
2017-03-31T18:11:39.364Z,20
2017-03-31T18:14:01.263Z,12
2017-03-31T18:15:03.706Z,12
2017-03-31T18:16:06.552Z,12
2017-03-31T18:17:07.975Z,8
2017-03-31T18:18:13.657Z,8
2017-03-31T18:23:43.524Z,0
2017-03-31T18:24:44.228Z,4
2017-03-31T18:25:44.962Z,4
2017-03-31T18:26:46.356Z,0
2017-03-31T18:27:47.069Z,0
2017-03-31T18:28:47.754Z,0
2017-03-31T18:30:23.748Z,0
2017-03-31T18:31:24.488Z,0
2017-03-31T18:32:25.154Z,0
2017-03-31T18:33:25.808Z,0
2017-03-31T18:34:26.469Z,0
2017-03-31T18:35:27.150Z,0
2017-03-31T18:36:27.796Z,0
2017-03-31T18:37:28.445Z,0
2017-03-31T18:38:29.102Z,0
2017-03-31T18:39:29.766Z,0
2017-03-31T18:40:30.438Z,0
2017-03-31T18:41:31.097Z,0
2017-03-31T18:42:31.765Z,0
2017-03-31T18:43:32.408Z,0
2017-03-31T18:44:33.091Z,0
2017-03-31T18:45:33.747Z,0
2017-03-31T18:46:34.411Z,0
2017-03-31T18:47:35.090Z,0
2017-03-31T18:48:35.817Z,0
2017-03-31T18:49:36.479Z,0
2017-03-31T18:50:37.154Z,0
2017-03-31T18:51:37.842Z,0
2017-03-31T18:52:38.490Z,0
2017-03-31T18:53:39.154Z,0
2017-03-31T18:54:39.808Z,0
2017-03-31T18:55:40.484Z,0
2017-03-31T18:56:41.153Z,0
2017-03-31T18:57:41.873Z,0
2017-03-31T18:58:42.525Z,0
2017-03-31T18:59:43.169Z,0
2017-03-31T19:00:43.834Z,0
2017-03-31T19:01:44.500Z,0
2017-03-31T19:02:45.149Z,0
2017-03-31T19:03:45.810Z,0
2017-03-31T19:04:46.467Z,0
2017-03-31T19:05:47.143Z,0
2017-03-31T19:06:48.096Z,0
2017-03-31T19:07:48.741Z,0
2017-03-31T19:08:49.405Z,0
2017-03-31T19:09:50.052Z,0
2017-03-31T19:10:50.786Z,0
2017-03-31T19:11:51.848Z,0
2017-03-31T19:13:53.317Z,0
2017-03-31T19:14:54.051Z,0
2017-03-31T19:15:55.529Z,0
2017-03-31T19:16:56.476Z,0
2017-03-31T19:17:57.579Z,0
2017-03-31T19:18:58.355Z,0
2017-03-31T19:20:00.543Z,0
2017-03-31T19:21:07.894Z,0
2017-03-31T19:22:05.132Z,0
2017-03-31T19:23:05.813Z,0
2017-03-31T19:24:06.504Z,0
2017-03-31T19:25:07.409Z,0
2017-03-31T19:26:08.429Z,0
2017-03-31T19:27:09.128Z,0
2017-03-31T19:28:20.645Z,0
2017-03-31T19:29:15.451Z,0
2017-03-31T19:30:16.914Z,0
2017-03-31T19:31:17.941Z,0
2017-03-31T19:32:18.881Z,0
2017-03-31T19:33:19.783Z,0
2017-03-31T19:34:20.533Z,0
2017-03-31T19:35:21.311Z,0
2017-03-31T19:36:22.087Z,0
2017-03-31T19:37:22.910Z,0
2017-03-31T19:38:23.694Z,0
2017-03-31T19:39:25.442Z,0
2017-03-31T19:40:26.583Z,0
2017-03-31T19:41:27.651Z,0
2017-03-31T19:42:28.474Z,0
2017-03-31T19:43:29.273Z,0
2017-03-31T19:44:30.105Z,0
2017-03-31T19:45:30.757Z,0
2017-03-31T19:46:31.447Z,0
2017-03-31T19:47:32.162Z,0
2017-03-31T19:48:32.815Z,0
2017-03-31T19:49:33.527Z,0
2017-03-31T19:50:34.213Z,0
2017-03-31T19:51:34.903Z,0
2017-03-31T19:54:35.709Z,0
2017-03-31T19:55:37.004Z,0
2017-03-31T19:56:37.644Z,0
2017-03-31T19:57:38.283Z,0
2017-03-31T19:58:38.920Z,0
2017-03-31T19:59:39.574Z,0
2017-03-31T20:00:40.231Z,0
2017-03-31T20:01:40.868Z,0
2017-03-31T20:02:41.502Z,0
2017-03-31T20:03:42.374Z,0
2017-03-31T20:04:43.015Z,0
2017-03-31T20:05:43.912Z,0
2017-03-31T20:06:44.592Z,0
2017-03-31T20:07:45.229Z,0
2017-03-31T20:08:45.878Z,0
2017-03-31T20:09:46.521Z,0
2017-03-31T20:10:47.156Z,0
2017-03-31T20:11:47.798Z,0
2017-03-31T20:12:48.446Z,0
2017-03-31T20:13:49.083Z,0
2017-03-31T20:14:49.720Z,0
2017-03-31T20:15:50.644Z,0
2017-03-31T20:16:51.295Z,0
2017-03-31T20:17:51.927Z,0
2017-03-31T20:18:52.565Z,0
2017-03-31T20:19:53.236Z,0
2017-03-31T20:20:53.883Z,0
2017-03-31T20:21:54.525Z,0
2017-03-31T20:22:55.161Z,0
2017-03-31T20:23:55.810Z,0
2017-03-31T20:24:56.460Z,0
2017-03-31T20:25:57.104Z,0
2017-03-31T20:26:57.741Z,0
2017-03-31T20:27:58.408Z,0
2017-03-31T20:28:59.050Z,0
2017-03-31T20:29:59.699Z,0
2017-03-31T20:31:00.372Z,0
2017-03-31T20:32:01.007Z,0
2017-03-31T20:33:01.638Z,0
2017-03-31T20:34:02.273Z,0
2017-03-31T20:35:02.908Z,0
2017-03-31T20:36:03.851Z,0
2017-03-31T20:37:04.505Z,0
2017-03-31T20:38:05.143Z,0
2017-03-31T20:39:05.799Z,0
2017-03-31T20:40:06.433Z,0
2017-03-31T20:41:07.075Z,0
2017-03-31T20:42:07.713Z,0
2017-03-31T20:43:08.361Z,0
2017-03-31T20:44:09.005Z,0
2017-03-31T20:45:09.641Z,0
2017-03-31T20:46:10.287Z,0
2017-03-31T20:47:10.920Z,0
2017-03-31T20:48:11.610Z,0
2017-03-31T20:49:12.313Z,0
2017-03-31T20:50:12.950Z,0
2017-03-31T20:51:13.841Z,0
2017-03-31T20:52:14.485Z,0
2017-03-31T20:53:15.127Z,0
2017-03-31T20:54:15.780Z,0
2017-03-31T20:55:16.420Z,0
2017-03-31T20:56:17.065Z,0
2017-03-31T20:57:17.704Z,0
2017-03-31T20:58:18.350Z,0
2017-03-31T20:59:18.987Z,0
2017-03-31T21:00:19.640Z,0
2017-03-31T21:01:20.277Z,0
2017-03-31T21:02:20.920Z,0
2017-03-31T21:03:21.565Z,0
2017-03-31T21:04:22.216Z,0
2017-03-31T21:05:22.875Z,0
2017-03-31T21:06:23.514Z,0
2017-03-31T21:07:24.151Z,0
2017-03-31T21:08:24.791Z,0
2017-03-31T21:09:25.425Z,0
2017-03-31T21:10:26.058Z,0
2017-03-31T21:11:26.697Z,0
2017-03-31T21:12:27.359Z,0
2017-03-31T21:13:27.995Z,0
2017-03-31T21:14:28.631Z,0
2017-03-31T21:15:29.268Z,0
2017-03-31T21:16:29.901Z,0
2017-03-31T21:17:30.559Z,0
2017-03-31T21:18:31.192Z,0
2017-03-31T21:19:31.832Z,0
2017-03-31T21:20:32.478Z,0
2017-03-31T21:21:33.115Z,0
2017-03-31T21:22:33.768Z,0
2017-03-31T21:23:34.406Z,0
2017-03-31T21:24:35.048Z,0
2017-03-31T21:25:35.685Z,0
2017-03-31T21:26:36.323Z,0
2017-03-31T21:27:36.976Z,0
2017-03-31T21:28:37.632Z,0
2017-03-31T21:29:38.272Z,0
2017-03-31T21:30:38.926Z,0
2017-03-31T21:31:39.560Z,0
2017-03-31T21:32:40.222Z,0
2017-03-31T21:33:40.862Z,0
2017-03-31T21:34:41.531Z,0
2017-03-31T21:35:42.299Z,0
2017-03-31T21:36:42.933Z,0
2017-03-31T21:37:43.592Z,0
2017-03-31T21:38:44.242Z,0
2017-03-31T21:39:44.930Z,0
2017-03-31T21:40:45.567Z,0
2017-03-31T21:41:46.234Z,0
2017-03-31T21:42:46.884Z,0
2017-03-31T21:43:47.532Z,0
2017-03-31T21:44:48.182Z,0
2017-03-31T21:45:48.821Z,0
2017-03-31T21:46:49.468Z,0
2017-03-31T21:47:50.115Z,0
2017-03-31T21:48:50.766Z,0
2017-03-31T21:52:39.320Z,0
2017-03-31T21:53:39.957Z,0
2017-03-31T21:54:40.642Z,0
2017-03-31T21:55:41.296Z,0
2017-03-31T21:56:41.983Z,0
2017-03-31T21:57:42.630Z,0
2017-03-31T21:58:43.431Z,0
2017-03-31T21:59:44.113Z,0
2017-03-31T22:00:45.113Z,0
2017-03-31T22:01:45.827Z,0
2017-03-31T22:02:46.474Z,0
2017-03-31T22:03:47.164Z,0
2017-03-31T22:04:47.838Z,0
2017-03-31T22:05:48.492Z,0
2017-03-31T22:06:49.145Z,0
2017-03-31T22:07:49.814Z,0
2017-03-31T22:08:50.470Z,0
2017-03-31T22:09:51.119Z,0
2017-03-31T22:10:51.792Z,0
2017-03-31T22:11:52.452Z,0
2017-03-31T22:12:53.098Z,0
2017-03-31T22:13:53.757Z,0
2017-03-31T22:14:54.415Z,0
2017-03-31T22:15:55.065Z,0
2017-03-31T22:16:55.727Z,0
2017-03-31T22:17:56.680Z,0
2017-03-31T22:18:57.900Z,0
2017-03-31T22:19:58.548Z,0
2017-03-31T22:20:59.195Z,0
2017-03-31T22:21:59.853Z,0
2017-03-31T22:23:00.494Z,0
2017-03-31T22:24:01.145Z,0
2017-03-31T22:25:01.790Z,0
2017-03-31T22:26:02.441Z,0
2017-03-31T22:27:03.098Z,0
2017-03-31T22:28:03.749Z,0
2017-03-31T22:29:04.763Z,0
2017-03-31T22:30:05.409Z,0
2017-03-31T22:31:06.086Z,0
2017-03-31T22:32:06.740Z,0
2017-03-31T22:33:07.691Z,0
2017-03-31T22:34:08.615Z,0
2017-03-31T22:35:09.820Z,0
2017-03-31T22:36:10.649Z,0
2017-03-31T22:37:11.311Z,0
2017-03-31T22:38:12.018Z,0
2017-03-31T22:39:13.082Z,0
2017-03-31T22:40:13.757Z,0
2017-03-31T22:41:14.508Z,0
2017-03-31T22:42:15.469Z,0
2017-03-31T22:43:16.682Z,0
2017-03-31T22:44:17.668Z,0
2017-03-31T22:45:19.603Z,0
2017-03-31T22:46:20.089Z,0
2017-03-31T22:47:21.125Z,0
2017-03-31T22:48:25.326Z,0
2017-03-31T22:50:41.937Z,0
2017-03-31T22:51:42.577Z,0
2017-03-31T22:52:43.751Z,0
2017-03-31T22:53:44.398Z,0
2017-03-31T22:54:45.243Z,0
2017-03-31T22:55:45.900Z,0
2017-03-31T22:56:46.544Z,0
2017-03-31T22:57:47.177Z,0
2017-03-31T22:58:47.826Z,0
2017-03-31T22:59:48.463Z,0
2017-03-31T23:00:49.095Z,0
2017-03-31T23:01:49.743Z,0
2017-03-31T23:02:50.391Z,0
2017-03-31T23:03:51.025Z,0
2017-03-31T23:04:51.664Z,0
2017-03-31T23:05:52.301Z,0
2017-03-31T23:06:53.017Z,0
2017-03-31T23:07:53.662Z,0
2017-03-31T23:08:54.303Z,0
2017-03-31T23:09:56.022Z,0
2017-03-31T23:10:57.343Z,0
2017-03-31T23:11:58.095Z,0
2017-03-31T23:12:59.386Z,0
2017-03-31T23:14:00.056Z,0
2017-03-31T23:15:00.737Z,0
2017-03-31T23:16:01.407Z,0
2017-03-31T23:17:02.039Z,0
2017-03-31T23:18:02.673Z,0
2017-03-31T23:19:03.709Z,0
2017-03-31T23:20:04.344Z,0
2017-03-31T23:21:04.991Z,0
2017-03-31T23:22:06.379Z,0
2017-03-31T23:23:07.013Z,0
2017-03-31T23:24:07.645Z,0
2017-03-31T23:25:08.281Z,0
2017-03-31T23:26:08.915Z,0
2017-03-31T23:27:09.589Z,0
2017-03-31T23:28:10.238Z,0
2017-03-31T23:29:10.871Z,0
2017-03-31T23:30:11.518Z,0
2017-03-31T23:31:12.159Z,0
2017-03-31T23:32:12.792Z,0
2017-03-31T23:33:13.426Z,0
2017-03-31T23:34:14.059Z,0
2017-03-31T23:35:14.692Z,0
2017-03-31T23:36:15.325Z,0
2017-03-31T23:37:15.976Z,0
2017-03-31T23:38:16.613Z,0
2017-03-31T23:39:17.256Z,0
2017-03-31T23:40:17.902Z,0
2017-03-31T23:41:18.535Z,0
2017-03-31T23:42:19.569Z,0
2017-03-31T23:43:20.207Z,0
2017-03-31T23:44:20.849Z,0
2017-03-31T23:45:21.488Z,0
2017-03-31T23:46:22.145Z,0
2017-03-31T23:47:22.785Z,0
2017-03-31T23:48:23.426Z,0
2017-03-31T23:49:25.788Z,0
2017-03-31T23:50:26.280Z,0
2017-03-31T23:51:26.924Z,0
2017-03-31T23:52:27.568Z,0
2017-03-31T23:53:28.211Z,0
2017-03-31T23:54:28.842Z,0
2017-03-31T23:55:29.476Z,0
2017-03-31T23:56:30.108Z,0
2017-03-31T23:57:30.748Z,0
2017-03-31T23:58:31.383Z,0
2017-03-31T23:59:32.022Z,0
